sensor_id;sensor_type;location;lat;lon;timestamp;temperature;humidity
10282;DHT22;5186;59.472;18.048;2023-05-15T00:02:16;10.30;99.90
10282;DHT22;5186;59.472;18.048;2023-05-15T00:04:42;10.30;99.90
10282;DHT22;5186;59.472;18.048;2023-05-15T00:07:07;10.30;99.90
10282;DHT22;5186;59.472;18.048;2023-05-15T00:09:33;10.20;99.90
10282;DHT22;5186;59.472;18.048;2023-05-15T00:11:58;10.20;99.90
10282;DHT22;5186;59.472;18.048;2023-05-15T00:14:24;10.20;99.90
10282;DHT22;5186;59.472;18.048;2023-05-15T00:16:50;10.10;99.90
10282;DHT22;5186;59.472;18.048;2023-05-15T00:19:16;10.10;99.90
10282;DHT22;5186;59.472;18.048;2023-05-15T00:21:41;10.10;99.90
10282;DHT22;5186;59.472;18.048;2023-05-15T00:24:07;10.00;99.90
10282;DHT22;5186;59.472;18.048;2023-05-15T00:26:33;10.00;99.90
10282;DHT22;5186;59.472;18.048;2023-05-15T00:28:58;10.00;99.90
10282;DHT22;5186;59.472;18.048;2023-05-15T00:31:24;10.00;99.90
10282;DHT22;5186;59.472;18.048;2023-05-15T00:33:49;10.00;99.90
10282;DHT22;5186;59.472;18.048;2023-05-15T00:36:15;10.00;99.90
10282;DHT22;5186;59.472;18.048;2023-05-15T00:38:42;10.00;99.90
10282;DHT22;5186;59.472;18.048;2023-05-15T00:41:09;10.00;99.90
10282;DHT22;5186;59.472;18.048;2023-05-15T00:43:38;10.00;99.90
10282;DHT22;5186;59.472;18.048;2023-05-15T00:46:06;10.00;99.90
10282;DHT22;5186;59.472;18.048;2023-05-15T00:48:32;9.90;99.90
10282;DHT22;5186;59.472;18.048;2023-05-15T00:50:58;9.90;99.90
10282;DHT22;5186;59.472;18.048;2023-05-15T00:53:26;9.90;99.90
10282;DHT22;5186;59.472;18.048;2023-05-15T00:55:55;9.80;99.90
10282;DHT22;5186;59.472;18.048;2023-05-15T00:58:22;9.80;99.90
10282;DHT22;5186;59.472;18.048;2023-05-15T01:00:49;9.80;99.90
10282;DHT22;5186;59.472;18.048;2023-05-15T01:03:15;9.70;99.90
10282;DHT22;5186;59.472;18.048;2023-05-15T01:05:41;9.70;99.90
10282;DHT22;5186;59.472;18.048;2023-05-15T01:08:41;9.60;99.90
10282;DHT22;5186;59.472;18.048;2023-05-15T01:11:09;9.60;99.90
10282;DHT22;5186;59.472;18.048;2023-05-15T01:13:34;9.50;99.90
10282;DHT22;5186;59.472;18.048;2023-05-15T01:16:00;9.60;99.90
10282;DHT22;5186;59.472;18.048;2023-05-15T01:18:26;9.50;99.90
10282;DHT22;5186;59.472;18.048;2023-05-15T01:27:28;9.30;99.90
10282;DHT22;5186;59.472;18.048;2023-05-15T01:32:23;9.30;99.90
10282;DHT22;5186;59.472;18.048;2023-05-15T01:37:18;9.20;99.90
10282;DHT22;5186;59.472;18.048;2023-05-15T01:39:49;9.20;99.90
10282;DHT22;5186;59.472;18.048;2023-05-15T01:42:18;9.20;99.90
10282;DHT22;5186;59.472;18.048;2023-05-15T01:44:53;9.20;99.90
10282;DHT22;5186;59.472;18.048;2023-05-15T01:47:22;9.20;99.90
10282;DHT22;5186;59.472;18.048;2023-05-15T01:49:52;9.20;99.90
10282;DHT22;5186;59.472;18.048;2023-05-15T01:52:26;9.10;99.90
10282;DHT22;5186;59.472;18.048;2023-05-15T01:54:53;9.10;99.90
10282;DHT22;5186;59.472;18.048;2023-05-15T01:57:20;9.10;99.90
10282;DHT22;5186;59.472;18.048;2023-05-15T01:59:46;9.00;99.90
10282;DHT22;5186;59.472;18.048;2023-05-15T02:02:13;9.00;99.90
10282;DHT22;5186;59.472;18.048;2023-05-15T02:04:40;9.00;99.90
10282;DHT22;5186;59.472;18.048;2023-05-15T02:07:06;9.00;99.90
10282;DHT22;5186;59.472;18.048;2023-05-15T02:09:32;8.90;99.90
10282;DHT22;5186;59.472;18.048;2023-05-15T02:12:00;9.00;99.90
10282;DHT22;5186;59.472;18.048;2023-05-15T02:14:30;8.90;99.90
10282;DHT22;5186;59.472;18.048;2023-05-15T02:16:55;8.90;99.90
10282;DHT22;5186;59.472;18.048;2023-05-15T02:19:21;8.90;99.90
10282;DHT22;5186;59.472;18.048;2023-05-15T02:21:47;8.80;99.90
10282;DHT22;5186;59.472;18.048;2023-05-15T02:24:13;8.80;99.90
10282;DHT22;5186;59.472;18.048;2023-05-15T02:37:31;8.70;99.90
10282;DHT22;5186;59.472;18.048;2023-05-15T02:40:00;8.70;99.90
10282;DHT22;5186;59.472;18.048;2023-05-15T02:42:27;8.80;99.90
10282;DHT22;5186;59.472;18.048;2023-05-15T02:44:54;8.80;99.90
10282;DHT22;5186;59.472;18.048;2023-05-15T02:47:20;8.80;99.90
10282;DHT22;5186;59.472;18.048;2023-05-15T02:49:47;8.80;99.90
10282;DHT22;5186;59.472;18.048;2023-05-15T02:52:13;8.80;99.90
10282;DHT22;5186;59.472;18.048;2023-05-15T02:54:39;8.80;99.90
10282;DHT22;5186;59.472;18.048;2023-05-15T02:57:05;8.80;99.90
10282;DHT22;5186;59.472;18.048;2023-05-15T02:59:32;8.80;99.90
10282;DHT22;5186;59.472;18.048;2023-05-15T03:01:58;8.80;99.90
10282;DHT22;5186;59.472;18.048;2023-05-15T03:04:24;8.80;99.90
10282;DHT22;5186;59.472;18.048;2023-05-15T03:06:49;8.80;99.90
10282;DHT22;5186;59.472;18.048;2023-05-15T03:09:15;8.80;99.90
10282;DHT22;5186;59.472;18.048;2023-05-15T03:11:40;8.80;99.90
10282;DHT22;5186;59.472;18.048;2023-05-15T03:14:06;8.90;99.90
10282;DHT22;5186;59.472;18.048;2023-05-15T03:16:32;8.90;99.90
10282;DHT22;5186;59.472;18.048;2023-05-15T03:18:58;8.90;99.90
10282;DHT22;5186;59.472;18.048;2023-05-15T03:21:23;8.90;99.90
10282;DHT22;5186;59.472;18.048;2023-05-15T03:23:49;8.90;99.90
10282;DHT22;5186;59.472;18.048;2023-05-15T03:26:14;9.00;99.90
10282;DHT22;5186;59.472;18.048;2023-05-15T03:28:40;9.00;99.90
10282;DHT22;5186;59.472;18.048;2023-05-15T03:31:05;8.90;99.90
10282;DHT22;5186;59.472;18.048;2023-05-15T03:33:33;9.00;99.90
10282;DHT22;5186;59.472;18.048;2023-05-15T03:35:59;9.00;99.90
10282;DHT22;5186;59.472;18.048;2023-05-15T03:38:24;9.00;99.90
10282;DHT22;5186;59.472;18.048;2023-05-15T03:40:50;9.10;99.90
10282;DHT22;5186;59.472;18.048;2023-05-15T03:43:15;9.10;99.90
10282;DHT22;5186;59.472;18.048;2023-05-15T03:45:41;9.20;99.90
10282;DHT22;5186;59.472;18.048;2023-05-15T03:48:07;9.20;99.90
10282;DHT22;5186;59.472;18.048;2023-05-15T03:50:32;9.30;99.90
10282;DHT22;5186;59.472;18.048;2023-05-15T03:52:58;9.30;99.90
10282;DHT22;5186;59.472;18.048;2023-05-15T03:55:23;9.40;99.90
10282;DHT22;5186;59.472;18.048;2023-05-15T03:57:49;9.50;99.90
10282;DHT22;5186;59.472;18.048;2023-05-15T04:00:15;9.50;99.90
10282;DHT22;5186;59.472;18.048;2023-05-15T04:02:41;9.60;99.90
10282;DHT22;5186;59.472;18.048;2023-05-15T04:05:07;9.70;99.90
10282;DHT22;5186;59.472;18.048;2023-05-15T04:07:34;9.80;99.90
10282;DHT22;5186;59.472;18.048;2023-05-15T04:10:00;9.90;99.90
10282;DHT22;5186;59.472;18.048;2023-05-15T04:12:33;10.00;99.90
10282;DHT22;5186;59.472;18.048;2023-05-15T04:17:42;10.10;99.90
10282;DHT22;5186;59.472;18.048;2023-05-15T04:20:08;10.30;99.90
10282;DHT22;5186;59.472;18.048;2023-05-15T04:22:35;10.40;99.90
10282;DHT22;5186;59.472;18.048;2023-05-15T04:25:01;10.50;99.90
10282;DHT22;5186;59.472;18.048;2023-05-15T04:27:27;10.60;99.90
10282;DHT22;5186;59.472;18.048;2023-05-15T04:29:52;10.60;99.90
10282;DHT22;5186;59.472;18.048;2023-05-15T04:32:18;10.70;99.90
10282;DHT22;5186;59.472;18.048;2023-05-15T04:34:43;10.80;99.90
10282;DHT22;5186;59.472;18.048;2023-05-15T04:37:10;10.90;99.90
10282;DHT22;5186;59.472;18.048;2023-05-15T04:39:36;11.00;99.90
10282;DHT22;5186;59.472;18.048;2023-05-15T04:42:02;11.10;99.90
10282;DHT22;5186;59.472;18.048;2023-05-15T04:44:27;11.20;99.90
10282;DHT22;5186;59.472;18.048;2023-05-15T04:46:53;11.30;99.90
10282;DHT22;5186;59.472;18.048;2023-05-15T04:49:18;11.40;99.90
10282;DHT22;5186;59.472;18.048;2023-05-15T04:51:44;11.40;99.90
10282;DHT22;5186;59.472;18.048;2023-05-15T04:54:10;11.60;99.90
10282;DHT22;5186;59.472;18.048;2023-05-15T04:56:35;11.60;99.90
10282;DHT22;5186;59.472;18.048;2023-05-15T04:59:01;11.70;99.90
10282;DHT22;5186;59.472;18.048;2023-05-15T05:01:27;11.80;99.90
10282;DHT22;5186;59.472;18.048;2023-05-15T05:03:53;11.90;99.90
10282;DHT22;5186;59.472;18.048;2023-05-15T05:06:18;11.90;99.90
10282;DHT22;5186;59.472;18.048;2023-05-15T05:08:44;12.00;99.90
10282;DHT22;5186;59.472;18.048;2023-05-15T05:11:09;12.10;99.90
10282;DHT22;5186;59.472;18.048;2023-05-15T05:13:35;12.10;99.90
10282;DHT22;5186;59.472;18.048;2023-05-15T05:16:00;12.20;99.90
10282;DHT22;5186;59.472;18.048;2023-05-15T05:18:26;12.30;99.90
10282;DHT22;5186;59.472;18.048;2023-05-15T05:21:02;12.30;99.90
10282;DHT22;5186;59.472;18.048;2023-05-15T05:23:28;12.30;99.90
10282;DHT22;5186;59.472;18.048;2023-05-15T05:25:54;12.40;99.90
10282;DHT22;5186;59.472;18.048;2023-05-15T05:28:19;12.40;99.90
10282;DHT22;5186;59.472;18.048;2023-05-15T05:30:46;12.50;99.90
10282;DHT22;5186;59.472;18.048;2023-05-15T05:33:12;12.50;99.90
10282;DHT22;5186;59.472;18.048;2023-05-15T05:35:38;12.60;99.90
10282;DHT22;5186;59.472;18.048;2023-05-15T05:38:03;12.60;99.90
10282;DHT22;5186;59.472;18.048;2023-05-15T05:40:29;12.70;99.90
10282;DHT22;5186;59.472;18.048;2023-05-15T05:42:59;12.70;99.90
10282;DHT22;5186;59.472;18.048;2023-05-15T05:45:24;12.80;99.90
10282;DHT22;5186;59.472;18.048;2023-05-15T05:47:50;12.90;99.90
10282;DHT22;5186;59.472;18.048;2023-05-15T05:50:16;12.90;99.90
10282;DHT22;5186;59.472;18.048;2023-05-15T05:52:41;13.00;99.90
10282;DHT22;5186;59.472;18.048;2023-05-15T05:55:08;13.00;99.90
10282;DHT22;5186;59.472;18.048;2023-05-15T05:57:34;13.00;99.90
10282;DHT22;5186;59.472;18.048;2023-05-15T06:00:00;13.10;99.90
10282;DHT22;5186;59.472;18.048;2023-05-15T06:02:25;13.10;99.90
10282;DHT22;5186;59.472;18.048;2023-05-15T06:04:51;13.10;99.90
10282;DHT22;5186;59.472;18.048;2023-05-15T06:07:17;13.30;99.90
10282;DHT22;5186;59.472;18.048;2023-05-15T06:09:43;13.40;99.90
10282;DHT22;5186;59.472;18.048;2023-05-15T06:12:10;13.40;99.90
10282;DHT22;5186;59.472;18.048;2023-05-15T06:14:35;13.50;99.90
10282;DHT22;5186;59.472;18.048;2023-05-15T06:17:01;13.60;99.90
10282;DHT22;5186;59.472;18.048;2023-05-15T06:19:28;13.80;99.90
10282;DHT22;5186;59.472;18.048;2023-05-15T06:21:54;14.00;99.90
10282;DHT22;5186;59.472;18.048;2023-05-15T06:24:20;14.10;99.90
10282;DHT22;5186;59.472;18.048;2023-05-15T06:26:45;14.30;99.90
10282;DHT22;5186;59.472;18.048;2023-05-15T06:29:11;14.40;99.90
10282;DHT22;5186;59.472;18.048;2023-05-15T06:31:36;14.50;99.90
10282;DHT22;5186;59.472;18.048;2023-05-15T06:34:02;14.70;99.90
10282;DHT22;5186;59.472;18.048;2023-05-15T06:36:27;14.80;99.90
10282;DHT22;5186;59.472;18.048;2023-05-15T06:38:54;15.00;99.90
10282;DHT22;5186;59.472;18.048;2023-05-15T06:41:19;15.10;99.90
10282;DHT22;5186;59.472;18.048;2023-05-15T06:43:45;15.20;99.90
10282;DHT22;5186;59.472;18.048;2023-05-15T06:46:11;15.40;99.90
10282;DHT22;5186;59.472;18.048;2023-05-15T06:48:37;15.50;99.90
10282;DHT22;5186;59.472;18.048;2023-05-15T06:51:02;15.70;99.90
10282;DHT22;5186;59.472;18.048;2023-05-15T06:53:28;15.80;99.90
10282;DHT22;5186;59.472;18.048;2023-05-15T06:55:54;16.00;99.90
10282;DHT22;5186;59.472;18.048;2023-05-15T06:58:20;16.10;99.90
10282;DHT22;5186;59.472;18.048;2023-05-15T07:00:45;16.20;99.90
10282;DHT22;5186;59.472;18.048;2023-05-15T07:03:11;16.30;99.90
10282;DHT22;5186;59.472;18.048;2023-05-15T07:05:38;16.50;99.90
10282;DHT22;5186;59.472;18.048;2023-05-15T07:08:04;16.60;99.90
10282;DHT22;5186;59.472;18.048;2023-05-15T07:10:30;16.70;99.90
10282;DHT22;5186;59.472;18.048;2023-05-15T07:12:55;16.80;99.90
10282;DHT22;5186;59.472;18.048;2023-05-15T07:15:21;16.90;99.90
10282;DHT22;5186;59.472;18.048;2023-05-15T07:17:46;17.00;99.90
10282;DHT22;5186;59.472;18.048;2023-05-15T07:20:12;17.00;99.90
10282;DHT22;5186;59.472;18.048;2023-05-15T07:22:38;17.00;99.90
10282;DHT22;5186;59.472;18.048;2023-05-15T07:25:04;17.10;99.90
10282;DHT22;5186;59.472;18.048;2023-05-15T07:27:29;17.20;99.90
10282;DHT22;5186;59.472;18.048;2023-05-15T07:29:55;17.30;99.90
10282;DHT22;5186;59.472;18.048;2023-05-15T07:32:20;17.40;99.90
10282;DHT22;5186;59.472;18.048;2023-05-15T07:34:46;17.40;99.90
10282;DHT22;5186;59.472;18.048;2023-05-15T07:37:12;17.50;99.90
10282;DHT22;5186;59.472;18.048;2023-05-15T07:39:37;17.50;99.90
10282;DHT22;5186;59.472;18.048;2023-05-15T07:42:03;17.60;99.90
10282;DHT22;5186;59.472;18.048;2023-05-15T07:44:28;17.60;99.90
10282;DHT22;5186;59.472;18.048;2023-05-15T07:46:54;17.60;99.90
10282;DHT22;5186;59.472;18.048;2023-05-15T07:49:20;17.70;99.90
10282;DHT22;5186;59.472;18.048;2023-05-15T07:51:47;17.70;99.90
10282;DHT22;5186;59.472;18.048;2023-05-15T07:54:12;17.70;99.90
10282;DHT22;5186;59.472;18.048;2023-05-15T07:56:38;17.80;99.90
10282;DHT22;5186;59.472;18.048;2023-05-15T07:59:04;17.80;99.90
10282;DHT22;5186;59.472;18.048;2023-05-15T08:01:29;17.90;99.90
10282;DHT22;5186;59.472;18.048;2023-05-15T08:03:55;18.00;99.90
10282;DHT22;5186;59.472;18.048;2023-05-15T08:06:22;18.00;99.90
10282;DHT22;5186;59.472;18.048;2023-05-15T08:08:48;18.10;99.90
10282;DHT22;5186;59.472;18.048;2023-05-15T08:11:13;18.20;99.90
10282;DHT22;5186;59.472;18.048;2023-05-15T08:13:39;18.20;99.90
10282;DHT22;5186;59.472;18.048;2023-05-15T08:16:04;18.30;99.90
10282;DHT22;5186;59.472;18.048;2023-05-15T08:18:30;18.40;99.90
10282;DHT22;5186;59.472;18.048;2023-05-15T08:20:55;18.50;99.90
10282;DHT22;5186;59.472;18.048;2023-05-15T08:23:21;18.60;99.90
10282;DHT22;5186;59.472;18.048;2023-05-15T08:25:47;18.60;99.90
10282;DHT22;5186;59.472;18.048;2023-05-15T08:28:12;18.70;99.90
10282;DHT22;5186;59.472;18.048;2023-05-15T08:30:38;18.70;99.90
10282;DHT22;5186;59.472;18.048;2023-05-15T08:33:03;18.80;99.90
10282;DHT22;5186;59.472;18.048;2023-05-15T08:35:29;18.90;99.90
10282;DHT22;5186;59.472;18.048;2023-05-15T08:37:56;19.00;99.90
10282;DHT22;5186;59.472;18.048;2023-05-15T08:40:21;19.00;99.90
10282;DHT22;5186;59.472;18.048;2023-05-15T08:42:51;19.10;99.90
10282;DHT22;5186;59.472;18.048;2023-05-15T08:45:18;19.20;99.90
10282;DHT22;5186;59.472;18.048;2023-05-15T08:47:44;19.20;99.90
10282;DHT22;5186;59.472;18.048;2023-05-15T08:50:11;19.30;99.90
10282;DHT22;5186;59.472;18.048;2023-05-15T08:52:43;19.30;99.90
10282;DHT22;5186;59.472;18.048;2023-05-15T08:55:09;19.40;99.90
10282;DHT22;5186;59.472;18.048;2023-05-15T08:57:36;19.40;99.90
10282;DHT22;5186;59.472;18.048;2023-05-15T09:00:03;19.50;99.90
10282;DHT22;5186;59.472;18.048;2023-05-15T09:02:37;19.60;99.90
10282;DHT22;5186;59.472;18.048;2023-05-15T09:05:04;19.70;99.90
10282;DHT22;5186;59.472;18.048;2023-05-15T09:07:30;19.70;99.90
10282;DHT22;5186;59.472;18.048;2023-05-15T09:09:57;19.90;99.90
10282;DHT22;5186;59.472;18.048;2023-05-15T09:12:24;19.90;99.90
10282;DHT22;5186;59.472;18.048;2023-05-15T09:14:50;20.00;99.90
10282;DHT22;5186;59.472;18.048;2023-05-15T09:17:16;20.00;99.90
10282;DHT22;5186;59.472;18.048;2023-05-15T09:19:42;20.10;99.90
10282;DHT22;5186;59.472;18.048;2023-05-15T09:22:20;20.20;99.60
10282;DHT22;5186;59.472;18.048;2023-05-15T09:24:51;20.20;98.20
10282;DHT22;5186;59.472;18.048;2023-05-15T09:27:22;20.20;98.70
10282;DHT22;5186;59.472;18.048;2023-05-15T09:29:48;20.30;98.70
10282;DHT22;5186;59.472;18.048;2023-05-15T09:32:18;20.40;98.50
10282;DHT22;5186;59.472;18.048;2023-05-15T09:34:44;20.50;98.00
10282;DHT22;5186;59.472;18.048;2023-05-15T09:37:28;20.50;97.60
10282;DHT22;5186;59.472;18.048;2023-05-15T09:39:55;20.60;97.60
10282;DHT22;5186;59.472;18.048;2023-05-15T09:42:33;20.60;97.60
10282;DHT22;5186;59.472;18.048;2023-05-15T09:44:59;20.60;97.20
10282;DHT22;5186;59.472;18.048;2023-05-15T09:47:25;20.70;97.00
10282;DHT22;5186;59.472;18.048;2023-05-15T09:49:51;20.70;96.30
10282;DHT22;5186;59.472;18.048;2023-05-15T09:52:17;20.80;95.80
10282;DHT22;5186;59.472;18.048;2023-05-15T09:54:44;20.80;95.50
10282;DHT22;5186;59.472;18.048;2023-05-15T09:57:12;20.90;95.30
10282;DHT22;5186;59.472;18.048;2023-05-15T09:59:45;20.90;94.90
10282;DHT22;5186;59.472;18.048;2023-05-15T10:02:25;20.90;94.60
10282;DHT22;5186;59.472;18.048;2023-05-15T10:04:58;21.00;94.60
10282;DHT22;5186;59.472;18.048;2023-05-15T10:07:31;21.00;94.80
10282;DHT22;5186;59.472;18.048;2023-05-15T10:09:57;21.10;94.40
10282;DHT22;5186;59.472;18.048;2023-05-15T10:12:24;21.10;94.40
10282;DHT22;5186;59.472;18.048;2023-05-15T10:14:51;21.20;94.30
10282;DHT22;5186;59.472;18.048;2023-05-15T10:17:19;21.20;94.30
10282;DHT22;5186;59.472;18.048;2023-05-15T10:19:46;21.20;93.50
10282;DHT22;5186;59.472;18.048;2023-05-15T10:22:12;21.20;93.70
10282;DHT22;5186;59.472;18.048;2023-05-15T10:24:40;21.30;93.70
10282;DHT22;5186;59.472;18.048;2023-05-15T10:27:08;21.30;93.80
10282;DHT22;5186;59.472;18.048;2023-05-15T10:29:35;21.40;93.90
10282;DHT22;5186;59.472;18.048;2023-05-15T10:32:01;21.40;94.00
10282;DHT22;5186;59.472;18.048;2023-05-15T10:34:27;21.50;94.30
10282;DHT22;5186;59.472;18.048;2023-05-15T10:36:54;21.50;94.60
10282;DHT22;5186;59.472;18.048;2023-05-15T10:39:20;21.50;94.30
10282;DHT22;5186;59.472;18.048;2023-05-15T10:41:49;21.60;95.00
10282;DHT22;5186;59.472;18.048;2023-05-15T10:44:15;21.60;94.60
10282;DHT22;5186;59.472;18.048;2023-05-15T10:46:42;21.60;94.60
10282;DHT22;5186;59.472;18.048;2023-05-15T10:49:07;21.60;94.80
10282;DHT22;5186;59.472;18.048;2023-05-15T10:51:36;21.60;94.70
10282;DHT22;5186;59.472;18.048;2023-05-15T10:54:02;21.60;94.70
10282;DHT22;5186;59.472;18.048;2023-05-15T10:56:36;21.60;94.60
10282;DHT22;5186;59.472;18.048;2023-05-15T10:59:07;21.60;94.90
10282;DHT22;5186;59.472;18.048;2023-05-15T11:01:37;21.70;94.80
10282;DHT22;5186;59.472;18.048;2023-05-15T11:04:16;21.70;94.80
10282;DHT22;5186;59.472;18.048;2023-05-15T11:06:47;21.70;94.50
10282;DHT22;5186;59.472;18.048;2023-05-15T11:14:20;21.70;94.30
10282;DHT22;5186;59.472;18.048;2023-05-15T11:24:58;21.70;93.90
10282;DHT22;5186;59.472;18.048;2023-05-15T11:27:28;21.70;93.80
10282;DHT22;5186;59.472;18.048;2023-05-15T11:33:07;21.60;93.70
10282;DHT22;5186;59.472;18.048;2023-05-15T11:35:38;21.60;93.80
10282;DHT22;5186;59.472;18.048;2023-05-15T11:38:16;21.60;94.20
10282;DHT22;5186;59.472;18.048;2023-05-15T11:40:56;21.60;96.00
10282;DHT22;5186;59.472;18.048;2023-05-15T11:43:23;21.50;95.20
10282;DHT22;5186;59.472;18.048;2023-05-15T11:45:56;21.40;95.30
10282;DHT22;5186;59.472;18.048;2023-05-15T11:48:32;21.40;95.40
10282;DHT22;5186;59.472;18.048;2023-05-15T11:51:00;21.40;94.20
10282;DHT22;5186;59.472;18.048;2023-05-15T11:53:27;21.50;94.20
10282;DHT22;5186;59.472;18.048;2023-05-15T11:55:53;21.50;94.20
10282;DHT22;5186;59.472;18.048;2023-05-15T11:58:20;21.60;94.30
10282;DHT22;5186;59.472;18.048;2023-05-15T12:00:47;21.60;93.90
10282;DHT22;5186;59.472;18.048;2023-05-15T12:05:42;21.60;93.70
10282;DHT22;5186;59.472;18.048;2023-05-15T12:08:10;21.70;93.90
10282;DHT22;5186;59.472;18.048;2023-05-15T12:10:40;21.70;93.50
10282;DHT22;5186;59.472;18.048;2023-05-15T12:13:06;21.70;93.40
10282;DHT22;5186;59.472;18.048;2023-05-15T12:15:36;21.70;93.40
10282;DHT22;5186;59.472;18.048;2023-05-15T12:18:02;21.70;93.30
10282;DHT22;5186;59.472;18.048;2023-05-15T12:20:31;21.70;93.40
10282;DHT22;5186;59.472;18.048;2023-05-15T12:22:57;21.80;93.50
10282;DHT22;5186;59.472;18.048;2023-05-15T12:25:23;21.80;93.50
10282;DHT22;5186;59.472;18.048;2023-05-15T12:27:49;21.80;93.30
10282;DHT22;5186;59.472;18.048;2023-05-15T12:30:16;21.80;93.50
10282;DHT22;5186;59.472;18.048;2023-05-15T12:32:41;21.90;93.20
10282;DHT22;5186;59.472;18.048;2023-05-15T12:35:09;21.90;92.90
10282;DHT22;5186;59.472;18.048;2023-05-15T12:37:35;21.90;92.60
10282;DHT22;5186;59.472;18.048;2023-05-15T12:40:02;22.00;92.50
10282;DHT22;5186;59.472;18.048;2023-05-15T12:42:43;22.00;92.60
10282;DHT22;5186;59.472;18.048;2023-05-15T12:45:16;22.00;92.60
10282;DHT22;5186;59.472;18.048;2023-05-15T12:47:43;22.00;92.60
10282;DHT22;5186;59.472;18.048;2023-05-15T12:50:17;22.10;93.50
10282;DHT22;5186;59.472;18.048;2023-05-15T12:55:16;22.20;93.80
10282;DHT22;5186;59.472;18.048;2023-05-15T12:57:42;22.20;93.20
10282;DHT22;5186;59.472;18.048;2023-05-15T13:00:11;22.10;93.20
10282;DHT22;5186;59.472;18.048;2023-05-15T13:02:38;22.20;93.10
10282;DHT22;5186;59.472;18.048;2023-05-15T13:05:04;22.30;93.10
10282;DHT22;5186;59.472;18.048;2023-05-15T13:07:29;22.30;92.90
10282;DHT22;5186;59.472;18.048;2023-05-15T13:10:05;22.30;93.00
10282;DHT22;5186;59.472;18.048;2023-05-15T13:12:35;22.30;92.90
10282;DHT22;5186;59.472;18.048;2023-05-15T13:15:01;22.40;92.60
10282;DHT22;5186;59.472;18.048;2023-05-15T13:17:29;22.40;92.90
10282;DHT22;5186;59.472;18.048;2023-05-15T13:19:54;22.40;92.70
10282;DHT22;5186;59.472;18.048;2023-05-15T13:22:20;22.40;92.50
10282;DHT22;5186;59.472;18.048;2023-05-15T13:24:45;22.40;92.50
10282;DHT22;5186;59.472;18.048;2023-05-15T13:27:11;22.40;92.60
10282;DHT22;5186;59.472;18.048;2023-05-15T13:29:36;22.40;92.40
10282;DHT22;5186;59.472;18.048;2023-05-15T13:32:02;22.40;92.50
10282;DHT22;5186;59.472;18.048;2023-05-15T13:34:28;22.50;92.80
10282;DHT22;5186;59.472;18.048;2023-05-15T13:36:53;22.50;92.40
10282;DHT22;5186;59.472;18.048;2023-05-15T13:39:19;22.40;92.50
10282;DHT22;5186;59.472;18.048;2023-05-15T13:41:44;22.50;92.80
10282;DHT22;5186;59.472;18.048;2023-05-15T13:44:10;22.40;92.50
10282;DHT22;5186;59.472;18.048;2023-05-15T13:46:35;22.40;92.40
10282;DHT22;5186;59.472;18.048;2023-05-15T13:49:01;22.40;92.20
10282;DHT22;5186;59.472;18.048;2023-05-15T13:51:26;22.40;92.10
10282;DHT22;5186;59.472;18.048;2023-05-15T13:53:52;22.30;91.90
10282;DHT22;5186;59.472;18.048;2023-05-15T13:56:18;22.30;92.40
10282;DHT22;5186;59.472;18.048;2023-05-15T13:58:43;22.20;92.30
10282;DHT22;5186;59.472;18.048;2023-05-15T14:01:09;22.20;92.20
10282;DHT22;5186;59.472;18.048;2023-05-15T14:03:34;22.20;92.00
10282;DHT22;5186;59.472;18.048;2023-05-15T14:06:00;22.10;92.30
10282;DHT22;5186;59.472;18.048;2023-05-15T14:08:26;22.20;92.30
10282;DHT22;5186;59.472;18.048;2023-05-15T14:10:51;22.10;92.00
10282;DHT22;5186;59.472;18.048;2023-05-15T14:13:17;22.20;92.20
10282;DHT22;5186;59.472;18.048;2023-05-15T14:15:46;22.20;92.10
10282;DHT22;5186;59.472;18.048;2023-05-15T14:18:13;22.20;92.20
10282;DHT22;5186;59.472;18.048;2023-05-15T14:20:39;22.30;92.20
10282;DHT22;5186;59.472;18.048;2023-05-15T14:23:05;22.30;92.10
10282;DHT22;5186;59.472;18.048;2023-05-15T14:25:30;22.30;91.80
10282;DHT22;5186;59.472;18.048;2023-05-15T14:31:16;22.30;91.10
10282;DHT22;5186;59.472;18.048;2023-05-15T14:33:41;22.40;91.40
10282;DHT22;5186;59.472;18.048;2023-05-15T14:36:07;22.40;91.20
10282;DHT22;5186;59.472;18.048;2023-05-15T14:38:32;22.30;91.00
10282;DHT22;5186;59.472;18.048;2023-05-15T14:40:58;22.40;90.90
10282;DHT22;5186;59.472;18.048;2023-05-15T14:43:24;22.30;90.60
10282;DHT22;5186;59.472;18.048;2023-05-15T14:45:50;22.30;90.40
10282;DHT22;5186;59.472;18.048;2023-05-15T14:48:16;22.30;90.60
10282;DHT22;5186;59.472;18.048;2023-05-15T14:50:41;22.40;90.50
10282;DHT22;5186;59.472;18.048;2023-05-15T14:53:07;22.40;90.40
10282;DHT22;5186;59.472;18.048;2023-05-15T14:55:33;22.40;90.20
10282;DHT22;5186;59.472;18.048;2023-05-15T14:57:58;22.40;90.10
10282;DHT22;5186;59.472;18.048;2023-05-15T15:00:24;22.50;90.00
10282;DHT22;5186;59.472;18.048;2023-05-15T15:02:49;22.50;90.00
10282;DHT22;5186;59.472;18.048;2023-05-15T15:05:15;22.50;89.80
10282;DHT22;5186;59.472;18.048;2023-05-15T15:08:05;22.60;89.70
10282;DHT22;5186;59.472;18.048;2023-05-15T15:10:32;22.60;88.30
10282;DHT22;5186;59.472;18.048;2023-05-15T15:12:58;22.40;88.90
10282;DHT22;5186;59.472;18.048;2023-05-15T15:15:24;22.40;88.90
10282;DHT22;5186;59.472;18.048;2023-05-15T15:17:50;22.40;89.10
10282;DHT22;5186;59.472;18.048;2023-05-15T15:20:18;22.40;89.10
10282;DHT22;5186;59.472;18.048;2023-05-15T15:22:44;22.40;89.20
10282;DHT22;5186;59.472;18.048;2023-05-15T15:25:10;22.30;90.10
10282;DHT22;5186;59.472;18.048;2023-05-15T15:27:37;22.30;90.20
10282;DHT22;5186;59.472;18.048;2023-05-15T15:30:03;22.30;90.40
10282;DHT22;5186;59.472;18.048;2023-05-15T15:32:29;22.30;90.90
10282;DHT22;5186;59.472;18.048;2023-05-15T15:34:56;22.30;91.10
10282;DHT22;5186;59.472;18.048;2023-05-15T15:37:22;22.20;91.40
10282;DHT22;5186;59.472;18.048;2023-05-15T15:39:48;22.20;91.50
10282;DHT22;5186;59.472;18.048;2023-05-15T15:42:13;22.10;91.70
10282;DHT22;5186;59.472;18.048;2023-05-15T15:44:39;22.10;92.00
10282;DHT22;5186;59.472;18.048;2023-05-15T15:47:05;22.00;92.10
10282;DHT22;5186;59.472;18.048;2023-05-15T15:49:30;22.00;92.20
10282;DHT22;5186;59.472;18.048;2023-05-15T15:51:56;21.90;92.30
10282;DHT22;5186;59.472;18.048;2023-05-15T15:54:22;21.80;92.30
10282;DHT22;5186;59.472;18.048;2023-05-15T15:56:47;21.70;92.60
10282;DHT22;5186;59.472;18.048;2023-05-15T15:59:13;21.70;92.60
10282;DHT22;5186;59.472;18.048;2023-05-15T16:01:39;21.70;92.70
10282;DHT22;5186;59.472;18.048;2023-05-15T16:04:05;21.60;92.60
10282;DHT22;5186;59.472;18.048;2023-05-15T16:06:32;21.70;92.90
10282;DHT22;5186;59.472;18.048;2023-05-15T16:08:58;21.70;92.80
10282;DHT22;5186;59.472;18.048;2023-05-15T16:11:23;21.70;92.70
10282;DHT22;5186;59.472;18.048;2023-05-15T16:13:50;21.70;92.70
10282;DHT22;5186;59.472;18.048;2023-05-15T16:16:15;21.70;92.60
10282;DHT22;5186;59.472;18.048;2023-05-15T16:18:41;21.70;92.60
10282;DHT22;5186;59.472;18.048;2023-05-15T16:21:07;21.70;92.90
10282;DHT22;5186;59.472;18.048;2023-05-15T16:23:33;21.70;93.00